Time;durP1;ratioP1;P1;durP2;ratioP2;P2;SDS_P1;SDS_P2;PMS_P1;PMS_P2;Temp;Humidity;BMP_temperature;BMP_pressure;BME280_temperature;BME280_humidity;BME280_pressure;Samples;Min_cycle;Max_cycle;Signal;HPM_P1;HPM_P2
2023/01/22 00:01:43;;;;;;;2.30;2.30;;;16.40;62.40;;;;;;5103085;27;43458;-71
2023/01/22 00:04:13;;;;;;;2.40;2.40;;;16.40;62.50;;;;;;5103300;27;43729;-72
2023/01/22 00:06:41;;;;;;;2.50;2.50;;;16.50;62.50;;;;;;5101136;27;43430;-70
2023/01/22 00:09:09;;;;;;;2.30;2.30;;;16.50;62.10;;;;;;5104967;27;43408;-71
2023/01/22 00:11:37;;;;;;;2.10;2.10;;;16.50;62.00;;;;;;5104425;27;43395;-72
2023/01/22 00:14:05;;;;;;;2.40;2.40;;;16.50;62.00;;;;;;5097639;27;43755;-72
2023/01/22 00:16:33;;;;;;;2.37;2.37;;;16.50;62.10;;;;;;5099280;27;43425;-70
2023/01/22 00:19:01;;;;;;;2.40;2.40;;;16.50;62.30;;;;;;5097065;27;43470;-71
2023/01/22 00:21:30;;;;;;;2.50;2.30;;;16.50;62.30;;;;;;5092744;27;43634;-71
2023/01/22 00:23:58;;;;;;;2.10;2.10;;;16.50;62.30;;;;;;5081531;27;43611;-71
2023/01/22 00:26:26;;;;;;;2.30;2.30;;;16.50;62.30;;;;;;5071075;27;43594;-71
2023/01/22 00:28:54;;;;;;;2.33;2.33;;;16.40;62.20;;;;;;5097357;27;43494;-70
2023/01/22 00:31:22;;;;;;;2.40;2.40;;;16.40;62.30;;;;;;5089816;27;43392;-71
2023/01/22 00:33:50;;;;;;;2.40;2.33;;;16.40;62.40;;;;;;5088146;27;43935;-71
2023/01/22 00:36:19;;;;;;;2.40;2.40;;;16.40;62.50;;;;;;5094820;27;43469;-70
2023/01/22 00:38:49;;;;;;;2.47;2.47;;;16.40;62.50;;;;;;5097273;27;43518;-70
2023/01/22 00:41:17;;;;;;;2.20;2.20;;;16.50;62.20;;;;;;5084068;27;43558;-72
2023/01/22 00:43:45;;;;;;;2.40;2.40;;;16.60;61.90;;;;;;5089037;27;43633;-72
2023/01/22 00:46:15;;;;;;;2.37;2.37;;;16.60;62.00;;;;;;5092617;27;43409;-72
2023/01/22 00:48:44;;;;;;;2.23;2.23;;;16.50;61.90;;;;;;5078371;27;43890;-71
2023/01/22 00:51:13;;;;;;;2.17;2.17;;;16.50;62.40;;;;;;5085761;27;43983;-71
2023/01/22 00:53:42;;;;;;;2.60;2.60;;;16.50;62.10;;;;;;5102198;27;43702;-70
2023/01/22 00:56:12;;;;;;;2.20;2.20;;;16.50;62.10;;;;;;5078441;28;44361;-71
2023/01/22 00:58:40;;;;;;;2.20;2.20;;;16.50;62.20;;;;;;5100072;27;43502;-71
2023/01/22 01:01:08;;;;;;;2.30;2.30;;;16.50;62.30;;;;;;5086657;27;43503;-71
2023/01/22 01:03:36;;;;;;;2.50;2.50;;;16.50;62.40;;;;;;5079013;27;45361;-71
2023/01/22 01:06:06;;;;;;;2.30;2.30;;;16.40;62.30;;;;;;5080995;27;44471;-72
2023/01/22 01:08:34;;;;;;;2.30;2.30;;;16.40;62.50;;;;;;5094842;27;43463;-71
2023/01/22 01:11:05;;;;;;;2.30;2.30;;;16.40;62.40;;;;;;5084417;27;43570;-70
2023/01/22 01:13:41;;;;;;;2.33;2.33;;;16.40;62.40;;;;;;5096974;27;44047;-70
2023/01/22 01:16:12;;;;;;;2.47;2.47;;;16.40;62.40;;;;;;5095618;27;44048;-71
2023/01/22 01:18:39;;;;;;;2.47;2.47;;;16.40;62.50;;;;;;5091532;27;43414;-71
2023/01/22 01:21:07;;;;;;;2.30;2.30;;;16.40;62.50;;;;;;5075581;27;43937;-71
2023/01/22 01:23:35;;;;;;;2.33;2.33;;;16.40;62.50;;;;;;5075032;27;45938;-71
2023/01/22 01:26:06;;;;;;;2.40;2.40;;;16.40;62.70;;;;;;5076868;28;44676;-72
2023/01/22 01:28:36;;;;;;;2.20;2.20;;;16.40;62.50;;;;;;5078585;27;45094;-71
2023/01/22 01:31:04;;;;;;;2.20;2.20;;;16.60;62.30;;;;;;5100305;27;43461;-72
2023/01/22 01:33:32;;;;;;;2.67;2.57;;;16.60;61.90;;;;;;5087919;27;45687;-73
2023/01/22 01:36:01;;;;;;;2.30;2.30;;;16.60;62.00;;;;;;5065416;27;44005;-71
2023/01/22 01:38:29;;;;;;;2.10;2.10;;;16.60;62.00;;;;;;5071653;27;43436;-70
2023/01/22 01:40:57;;;;;;;2.43;2.43;;;16.50;62.10;;;;;;5080648;27;44273;-72
2023/01/22 01:43:27;;;;;;;2.50;2.50;;;16.50;62.20;;;;;;5080005;27;45449;-71
2023/01/22 01:45:56;;;;;;;2.40;2.40;;;16.50;62.20;;;;;;5073744;27;45574;-70
2023/01/22 01:48:26;;;;;;;2.60;2.60;;;16.50;62.20;;;;;;5084516;27;44137;-71
2023/01/22 01:50:57;;;;;;;2.63;2.60;;;16.50;62.30;;;;;;5091198;27;43906;-71
2023/01/22 01:53:26;;;;;;;2.23;2.23;;;16.50;62.40;;;;;;5073995;27;43824;-71
2023/01/22 01:55:54;;;;;;;2.60;2.53;;;16.40;62.30;;;;;;5087800;27;43451;-72
2023/01/22 01:58:22;;;;;;;2.30;2.30;;;16.40;62.50;;;;;;5067261;27;44208;-71
2023/01/22 02:00:51;;;;;;;2.30;2.30;;;16.40;62.40;;;;;;5074920;27;43436;-70
2023/01/22 02:03:21;;;;;;;2.10;2.10;;;16.40;62.50;;;;;;5086788;27;43679;-71
2023/01/22 02:05:48;;;;;;;2.30;2.30;;;16.40;62.50;;;;;;5068987;27;44899;-71
2023/01/22 02:08:17;;;;;;;2.50;2.50;;;16.40;62.50;;;;;;5084346;27;43955;-69
2023/01/22 02:10:45;;;;;;;2.40;2.40;;;16.40;62.50;;;;;;5103893;27;43597;-70
2023/01/22 02:13:17;;;;;;;2.40;2.40;;;16.40;62.60;;;;;;5096834;27;43935;-72
2023/01/22 02:15:47;;;;;;;2.40;2.40;;;16.30;62.60;;;;;;5070459;27;44701;-70
2023/01/22 02:18:14;;;;;;;2.33;2.33;;;16.40;62.70;;;;;;5083467;27;43439;-71
2023/01/22 02:20:51;;;;;;;2.70;2.67;;;16.50;62.40;;;;;;5094794;27;43574;-70
2023/01/22 02:23:19;;;;;;;2.50;2.50;;;16.50;62.10;;;;;;5070131;28;45697;-71
2023/01/22 02:25:47;;;;;;;2.20;2.20;;;16.50;62.20;;;;;;5068488;27;45213;-71
2023/01/22 02:28:15;;;;;;;2.53;2.53;;;16.50;62.20;;;;;;5072550;27;43544;-71
2023/01/22 02:30:44;;;;;;;2.30;2.30;;;16.50;62.40;;;;;;5070047;28;43626;-70
2023/01/22 02:33:14;;;;;;;2.20;2.20;;;16.40;62.30;;;;;;5083560;27;44040;-72
2023/01/22 02:35:44;;;;;;;2.20;2.20;;;16.50;62.40;;;;;;5082461;27;44762;-70
2023/01/22 02:38:13;;;;;;;2.87;2.77;;;16.50;62.50;;;;;;5069311;27;43522;-70
2023/01/22 02:40:47;;;;;;;2.40;2.40;;;16.40;62.40;;;;;;5088534;27;43459;-72
2023/01/22 02:43:18;;;;;;;2.40;2.40;;;16.40;62.50;;;;;;5067464;28;45782;-71
2023/01/22 02:45:46;;;;;;;2.50;2.50;;;16.40;62.50;;;;;;5066652;27;43828;-73
2023/01/22 02:48:14;;;;;;;2.43;2.43;;;16.40;62.70;;;;;;5070407;27;44684;-69
2023/01/22 02:50:43;;;;;;;2.50;2.50;;;16.40;62.80;;;;;;5069509;28;43637;-70
2023/01/22 02:53:14;;;;;;;2.60;2.57;;;16.50;62.60;;;;;;5086511;27;43838;-71
2023/01/22 02:55:45;;;;;;;2.50;2.50;;;16.50;62.20;;;;;;5068670;27;45021;-71
2023/01/22 02:58:14;;;;;;;2.67;2.63;;;16.50;62.20;;;;;;5062269;27;43558;-71
2023/01/22 03:00:42;;;;;;;2.50;2.50;;;16.50;62.30;;;;;;5068039;27;43531;-71
2023/01/22 03:03:14;;;;;;;2.63;2.63;;;16.50;62.40;;;;;;5075074;27;45476;-72
2023/01/22 03:05:46;;;;;;;2.53;2.53;;;16.40;62.40;;;;;;5066427;27;44677;-71
2023/01/22 03:08:16;;;;;;;2.10;2.10;;;16.40;62.40;;;;;;5079877;27;43496;-72
2023/01/22 03:10:44;;;;;;;2.27;2.27;;;16.40;62.50;;;;;;5082047;27;43498;-72
2023/01/22 03:21:30;;;;;;;2.30;2.30;;;16.40;62.60;;;;;;5093142;27;44091;-72
2023/01/22 03:23:59;;;;;;;2.33;2.33;;;16.40;62.70;;;;;;5094228;27;43920;-70
2023/01/22 03:26:27;;;;;;;2.20;2.20;;;16.40;62.70;;;;;;5068592;27;43555;-71
2023/01/22 03:28:55;;;;;;;2.20;2.20;;;16.40;62.70;;;;;;5088996;27;43946;-71
2023/01/22 03:31:23;;;;;;;2.50;2.50;;;16.30;62.60;;;;;;5092911;27;43518;-71
2023/01/22 03:33:51;;;;;;;2.50;2.50;;;16.30;62.60;;;;;;5068435;27;44055;-71
2023/01/22 03:36:19;;;;;;;2.20;2.20;;;16.30;62.70;;;;;;5070536;27;43944;-71
2023/01/22 03:38:51;;;;;;;2.53;2.53;;;16.30;62.80;;;;;;5069808;27;44647;-72
2023/01/22 03:41:25;;;;;;;2.47;2.47;;;16.40;62.90;;;;;;5072227;27;43538;-72
2023/01/22 03:43:54;;;;;;;2.60;2.60;;;16.50;62.60;;;;;;5092014;27;43868;-70
2023/01/22 03:46:28;;;;;;;2.70;2.70;;;16.50;62.10;;;;;;5066527;27;44330;-72
2023/01/22 03:48:56;;;;;;;2.43;2.43;;;16.60;62.10;;;;;;5091994;27;43666;-70
2023/01/22 03:51:26;;;;;;;2.10;2.10;;;16.50;62.00;;;;;;5068735;28;43448;-71
2023/01/22 03:53:54;;;;;;;2.40;2.40;;;16.50;62.10;;;;;;5071086;28;46510;-72
2023/01/22 03:56:22;;;;;;;2.47;2.47;;;16.50;62.30;;;;;;5077766;27;43470;-72
2023/01/22 03:58:56;;;;;;;2.30;2.30;;;16.50;62.30;;;;;;5071954;28;43488;-72
2023/01/22 04:01:25;;;;;;;2.50;2.50;;;16.50;62.30;;;;;;5092353;27;43584;-71
2023/01/22 04:03:55;;;;;;;2.40;2.40;;;16.50;62.50;;;;;;5063693;27;43965;-71
2023/01/22 04:06:25;;;;;;;2.40;2.40;;;16.40;62.40;;;;;;5071494;27;44680;-71
2023/01/22 04:08:54;;;;;;;2.60;2.60;;;16.40;62.50;;;;;;5069342;27;43907;-70
2023/01/22 04:11:28;;;;;;;2.40;2.40;;;16.40;62.60;;;;;;5069991;27;43538;-72
2023/01/22 04:13:57;;;;;;;2.10;2.10;;;16.30;63.30;;;;;;5065491;27;43819;-70
2023/01/22 04:16:29;;;;;;;2.20;2.20;;;16.40;62.80;;;;;;5072646;27;43945;-71
2023/01/22 04:19:27;;;;;;;2.57;2.57;;;16.40;62.80;;;;;;5073009;27;43822;-72
2023/01/22 04:22:30;;;;;;;2.90;2.80;;;16.30;62.80;;;;;;5069361;27;44465;-71
2023/01/22 04:24:58;;;;;;;2.87;2.63;;;16.30;62.90;;;;;;5067155;28;45788;-72
2023/01/22 04:27:27;;;;;;;3.27;3.17;;;16.30;62.90;;;;;;5075350;28;44767;-71
2023/01/22 04:29:57;;;;;;;3.90;3.60;;;16.30;63.10;;;;;;5071025;27;43479;-71
2023/01/22 04:32:25;;;;;;;5.30;4.17;;;16.30;62.90;;;;;;5091652;27;43486;-71
2023/01/22 04:34:53;;;;;;;5.07;4.57;;;16.40;62.50;;;;;;5095878;27;43788;-71
2023/01/22 04:37:24;;;;;;;7.87;4.60;;;16.40;62.30;;;;;;5071787;28;43553;-72
2023/01/22 04:39:52;;;;;;;7.00;4.50;;;16.40;62.30;;;;;;5072340;27;44126;-72
2023/01/22 04:42:20;;;;;;;5.17;4.10;;;16.40;62.40;;;;;;5072827;27;43561;-73
2023/01/22 04:44:48;;;;;;;9.97;4.80;;;16.40;62.50;;;;;;5071554;27;46112;-70
2023/01/22 04:47:17;;;;;;;7.60;4.93;;;16.40;62.50;;;;;;5069210;27;45368;-70
2023/01/22 04:49:46;;;;;;;7.00;4.80;;;16.40;62.50;;;;;;5087551;27;43487;-70
2023/01/22 04:52:14;;;;;;;8.33;5.37;;;16.40;62.50;;;;;;5091762;27;43406;-71
2023/01/22 04:54:42;;;;;;;10.37;5.63;;;16.40;62.50;;;;;;5069151;27;45943;-73
2023/01/22 04:57:10;;;;;;;8.60;5.43;;;16.40;62.60;;;;;;5071795;28;43930;-71
2023/01/22 04:59:38;;;;;;;10.00;5.83;;;16.40;62.60;;;;;;5086642;27;43548;-71
2023/01/22 05:02:06;;;;;;;12.57;6.30;;;16.40;62.70;;;;;;5064085;27;43537;-71
2023/01/22 05:04:35;;;;;;;11.80;5.93;;;16.40;62.60;;;;;;5074271;28;44932;-72
2023/01/22 05:07:03;;;;;;;11.13;6.30;;;16.40;62.60;;;;;;5069375;27;43471;-71
2023/01/22 05:09:31;;;;;;;10.97;6.47;;;16.40;62.60;;;;;;5067223;28;43403;-72
2023/01/22 05:12:01;;;;;;;14.27;7.00;;;16.40;62.60;;;;;;5060774;27;43942;-72
2023/01/22 05:14:33;;;;;;;10.60;6.17;;;16.40;62.60;;;;;;5068642;27;45364;-71
2023/01/22 05:17:02;;;;;;;11.37;6.53;;;16.40;62.60;;;;;;5068175;28;43572;-72
2023/01/22 05:19:30;;;;;;;14.57;7.33;;;16.40;62.70;;;;;;5067546;28;43502;-70
2023/01/22 05:21:59;;;;;;;13.40;7.10;;;16.40;62.70;;;;;;5068292;27;43446;-71
2023/01/22 05:24:27;;;;;;;12.63;7.10;;;16.50;62.50;;;;;;5067561;27;45448;-70
2023/01/22 05:26:55;;;;;;;13.80;7.13;;;16.60;62.00;;;;;;5075748;27;44998;-70
2023/01/22 05:29:33;;;;;;;12.37;6.80;;;16.60;61.80;;;;;;5067756;27;43453;-70
2023/01/22 05:32:14;;;;;;;12.33;6.57;;;16.60;61.70;;;;;;5083292;27;43589;-72
2023/01/22 05:34:47;;;;;;;15.13;7.77;;;16.60;61.90;;;;;;5084221;27;44065;-72
2023/01/22 05:37:17;;;;;;;16.63;8.30;;;16.50;62.00;;;;;;5078865;27;44864;-69
2023/01/22 05:39:45;;;;;;;17.60;8.13;;;16.60;62.00;;;;;;5100524;27;43968;-72
2023/01/22 05:42:15;;;;;;;10.93;7.00;;;16.50;62.10;;;;;;5075768;27;44041;-71
2023/01/22 05:44:47;;;;;;;16.60;7.90;;;16.50;62.20;;;;;;5085232;27;43929;-70
2023/01/22 05:47:16;;;;;;;16.03;8.10;;;16.50;62.30;;;;;;5080042;27;43988;-70
2023/01/22 05:50:10;;;;;;;13.57;7.53;;;16.40;62.30;;;;;;5082517;27;43532;-70
2023/01/22 05:52:40;;;;;;;16.67;7.90;;;16.40;62.50;;;;;;5076716;27;43875;-71
2023/01/22 05:55:08;;;;;;;13.80;7.93;;;16.40;62.40;;;;;;5072969;27;43864;-71
2023/01/22 05:57:41;;;;;;;17.90;8.23;;;16.40;62.50;;;;;;5077111;27;43478;-71
2023/01/22 06:00:12;;;;;;;16.17;7.73;;;16.40;62.60;;;;;;5084935;27;43435;-72
2023/01/22 06:02:43;;;;;;;14.60;7.60;;;16.40;62.60;;;;;;5094732;27;43474;-71
2023/01/22 06:05:13;;;;;;;12.57;7.50;;;16.40;62.60;;;;;;5077306;27;45988;-70
2023/01/22 06:07:44;;;;;;;15.33;8.17;;;16.30;62.60;;;;;;5078765;27;43469;-72
2023/01/22 06:10:12;;;;;;;15.80;7.77;;;16.30;62.90;;;;;;5070249;28;43386;-71
2023/01/22 06:12:46;;;;;;;13.17;7.90;;;16.40;63.10;;;;;;5076547;27;43506;-70
2023/01/22 06:15:14;;;;;;;15.47;7.50;;;16.40;62.60;;;;;;5076986;28;45864;-71
2023/01/22 06:17:47;;;;;;;13.50;7.20;;;16.50;62.20;;;;;;5080668;27;43885;-71
2023/01/22 06:20:15;;;;;;;13.53;7.73;;;16.50;62.10;;;;;;5084347;27;43380;-71
2023/01/22 06:22:45;;;;;;;12.53;7.97;;;16.50;62.20;;;;;;5078260;27;43596;-70
2023/01/22 06:25:12;;;;;;;13.80;7.57;;;16.50;62.30;;;;;;5081102;27;44086;-71
2023/01/22 06:27:57;;;;;;;14.67;7.70;;;16.50;62.40;;;;;;5077221;27;43472;-70
2023/01/22 06:30:25;;;;;;;9.90;6.40;;;16.50;62.30;;;;;;5080376;27;43519;-70
2023/01/22 06:32:54;;;;;;;10.20;7.27;;;16.50;62.40;;;;;;5082371;27;43558;-72
2023/01/22 06:35:22;;;;;;;12.37;7.27;;;16.40;62.40;;;;;;5081808;27;45722;-71
2023/01/22 06:37:51;;;;;;;11.20;6.57;;;16.40;62.40;;;;;;5076595;27;44371;-71
2023/01/22 06:40:19;;;;;;;9.53;6.53;;;16.40;62.50;;;;;;5083707;27;43470;-72
2023/01/22 06:42:49;;;;;;;12.10;7.33;;;16.40;62.50;;;;;;5071324;27;43521;-71
2023/01/22 06:45:17;;;;;;;9.63;6.77;;;16.40;62.50;;;;;;5080138;27;45986;-72
2023/01/22 06:47:51;;;;;;;9.17;6.10;;;16.40;62.50;;;;;;5068752;27;44204;-71
2023/01/22 06:50:19;;;;;;;10.17;6.37;;;16.40;62.50;;;;;;5076364;27;43407;-69
2023/01/22 06:52:47;;;;;;;9.40;5.90;;;16.40;62.50;;;;;;5075433;27;43484;-70
2023/01/22 06:55:17;;;;;;;9.17;6.30;;;16.40;62.50;;;;;;5074056;27;43800;-71
2023/01/22 06:57:45;;;;;;;6.90;6.20;;;16.40;62.60;;;;;;5077820;27;45457;-71
2023/01/22 07:00:14;;;;;;;7.47;6.23;;;16.40;62.50;;;;;;5099875;27;43543;-72
2023/01/22 07:02:42;;;;;;;8.47;6.00;;;16.50;62.90;;;;;;5093050;27;43449;-70
2023/01/22 07:05:10;;;;;;;8.53;5.70;;;16.50;62.50;;;;;;5078708;27;45979;-72
2023/01/22 07:07:38;;;;;;;8.03;5.83;;;16.60;62.10;;;;;;5097578;27;43665;-70
2023/01/22 07:10:06;;;;;;;7.27;5.63;;;16.60;62.00;;;;;;5097806;27;43356;-72
2023/01/22 07:12:35;;;;;;;7.33;5.63;;;16.60;62.20;;;;;;5085906;27;43675;-71
2023/01/22 07:15:05;;;;;;;6.77;5.40;;;16.50;62.10;;;;;;5085817;27;43849;-71
2023/01/22 07:17:33;;;;;;;8.87;5.73;;;16.50;62.40;;;;;;5083596;27;43513;-71
2023/01/22 07:20:01;;;;;;;6.87;5.47;;;16.50;62.30;;;;;;5090315;27;43422;-70
2023/01/22 07:22:31;;;;;;;5.70;5.20;;;16.50;62.40;;;;;;5086580;27;43418;-71
2023/01/22 07:24:58;;;;;;;5.50;5.00;;;16.50;62.40;;;;;;5089152;27;44127;-72
2023/01/22 07:27:26;;;;;;;5.73;5.13;;;16.50;62.50;;;;;;5088222;27;43480;-70
2023/01/22 07:29:56;;;;;;;5.30;4.80;;;16.40;63.20;;;;;;5069511;27;43455;-70
2023/01/22 07:32:24;;;;;;;6.00;5.40;;;16.40;62.50;;;;;;5089879;27;43589;-71
2023/01/22 07:34:52;;;;;;;5.57;5.00;;;16.40;62.60;;;;;;5082191;27;43873;-71
2023/01/22 07:37:19;;;;;;;5.30;4.80;;;16.40;62.60;;;;;;5083883;27;43405;-70
2023/01/22 07:39:47;;;;;;;5.87;5.30;;;16.40;62.60;;;;;;5085188;27;43430;-71
2023/01/22 07:42:15;;;;;;;5.37;4.87;;;16.40;62.70;;;;;;5065605;28;43625;-71
2023/01/22 07:44:43;;;;;;;5.47;4.97;;;16.40;62.60;;;;;;5068229;28;45284;-71
2023/01/22 07:47:12;;;;;;;5.37;4.80;;;16.40;62.70;;;;;;5084525;27;43619;-72
2023/01/22 07:49:40;;;;;;;5.33;4.90;;;16.40;62.70;;;;;;5080269;27;43462;-71
2023/01/22 07:52:08;;;;;;;5.03;4.63;;;16.40;62.90;;;;;;5070533;27;43506;-71
2023/01/22 07:54:36;;;;;;;4.77;4.37;;;16.40;62.80;;;;;;5087915;27;43956;-70
2023/01/22 07:57:04;;;;;;;4.57;4.20;;;16.50;62.40;;;;;;5094414;27;43482;-72
2023/01/22 07:59:32;;;;;;;4.87;4.40;;;16.60;62.10;;;;;;5085041;27;44098;-70
2023/01/22 08:02:00;;;;;;;4.77;4.37;;;16.60;62.10;;;;;;5091808;27;43475;-70
2023/01/22 08:04:31;;;;;;;4.77;4.47;;;16.50;62.00;;;;;;5088162;27;43674;-71
2023/01/22 08:06:59;;;;;;;4.90;4.50;;;16.50;62.30;;;;;;5088671;27;43983;-70
2023/01/22 08:09:27;;;;;;;4.53;4.13;;;16.50;62.30;;;;;;5088047;27;43576;-70
2023/01/22 08:11:55;;;;;;;4.33;4.13;;;16.50;62.30;;;;;;5087077;27;43905;-71
2023/01/22 08:14:23;;;;;;;4.30;4.00;;;16.50;62.40;;;;;;5086451;27;44634;-71
2023/01/22 08:16:51;;;;;;;4.43;4.13;;;16.50;62.40;;;;;;5089731;27;44320;-71
2023/01/22 08:19:19;;;;;;;4.40;4.10;;;16.40;62.40;;;;;;5091589;27;44156;-72
2023/01/22 08:21:48;;;;;;;4.57;4.27;;;16.40;62.50;;;;;;5090469;27;44550;-69
2023/01/22 08:24:16;;;;;;;4.37;4.07;;;16.40;62.60;;;;;;5087826;27;43778;-71
2023/01/22 08:26:44;;;;;;;4.27;3.97;;;16.40;62.60;;;;;;5088788;27;43462;-71
2023/01/22 08:29:12;;;;;;;4.23;3.97;;;16.40;62.60;;;;;;5072981;27;43602;-71
2023/01/22 08:31:40;;;;;;;4.00;3.80;;;16.40;62.70;;;;;;5068889;27;43610;-71
2023/01/22 08:34:08;;;;;;;4.13;3.93;;;16.40;62.70;;;;;;5088931;27;43599;-71
2023/01/22 08:36:36;;;;;;;3.70;3.53;;;16.40;62.70;;;;;;5090879;27;43763;-71
2023/01/22 08:39:05;;;;;;;4.03;3.73;;;16.30;62.70;;;;;;5089224;27;44155;-71
2023/01/22 08:41:33;;;;;;;4.23;4.03;;;16.30;63.00;;;;;;5086443;27;43535;-73
2023/01/22 08:44:01;;;;;;;3.70;3.40;;;16.40;62.90;;;;;;5063853;28;45632;-71
2023/01/22 08:46:29;;;;;;;3.77;3.57;;;16.50;62.40;;;;;;5094744;27;43375;-72
2023/01/22 08:48:57;;;;;;;3.70;3.50;;;16.50;62.30;;;;;;5090902;27;43474;-70
2023/01/22 08:51:25;;;;;;;3.90;3.70;;;16.50;62.30;;;;;;5084739;27;43474;-70
2023/01/22 08:53:53;;;;;;;3.73;3.63;;;16.50;62.40;;;;;;5090573;27;43853;-71
2023/01/22 08:56:22;;;;;;;3.90;3.67;;;16.40;62.40;;;;;;5065819;27;44910;-70
2023/01/22 08:58:50;;;;;;;4.03;3.83;;;16.40;62.50;;;;;;5070709;28;43478;-72
2023/01/22 09:01:19;;;;;;;3.30;3.20;;;16.40;62.40;;;;;;5092261;27;43519;-72
2023/01/22 09:03:47;;;;;;;3.57;3.47;;;16.40;62.50;;;;;;5087336;27;43808;-71
2023/01/22 09:06:15;;;;;;;4.20;3.93;;;16.40;62.50;;;;;;5090523;27;43363;-69
2023/01/22 09:08:43;;;;;;;3.30;3.20;;;16.40;62.50;;;;;;5063810;28;43666;-71
2023/01/22 09:11:11;;;;;;;3.50;3.40;;;16.40;62.60;;;;;;5092766;27;44021;-71
2023/01/22 09:13:40;;;;;;;3.80;3.60;;;16.40;62.80;;;;;;5091746;27;43648;-71
2023/01/22 09:16:09;;;;;;;3.23;3.13;;;16.40;62.80;;;;;;5093071;27;43753;-70
2023/01/22 09:18:38;;;;;;;3.77;3.57;;;16.30;62.60;;;;;;5085014;27;43450;-70
2023/01/22 09:21:07;;;;;;;3.10;3.00;;;16.40;62.70;;;;;;5093366;27;43519;-73
2023/01/22 09:23:34;;;;;;;3.50;3.40;;;16.30;62.60;;;;;;5095209;27;43769;-71
2023/01/22 09:26:02;;;;;;;3.23;3.13;;;16.30;62.70;;;;;;5089543;27;43412;-70
2023/01/22 09:28:30;;;;;;;3.33;3.23;;;16.30;62.70;;;;;;5093103;27;43442;-71
2023/01/22 09:31:00;;;;;;;3.47;3.37;;;16.30;62.90;;;;;;5098109;27;43470;-72
2023/01/22 09:33:27;;;;;;;3.33;3.23;;;16.40;63.00;;;;;;5090622;27;43895;-71
2023/01/22 09:36:05;;;;;;;3.10;3.00;;;16.40;62.60;;;;;;5085314;27;43454;-72
2023/01/22 09:38:34;;;;;;;3.40;3.30;;;16.50;62.40;;;;;;5092888;27;43557;-71
2023/01/22 09:41:02;;;;;;;3.13;3.03;;;16.50;62.40;;;;;;5089346;27;43600;-71
2023/01/22 09:43:31;;;;;;;3.10;3.00;;;16.50;62.40;;;;;;5084783;27;43610;-70
2023/01/22 09:46:03;;;;;;;3.20;3.10;;;16.40;62.50;;;;;;5094381;27;43506;-71
2023/01/22 09:48:34;;;;;;;3.37;3.27;;;16.40;62.50;;;;;;5085650;27;43534;-71
2023/01/22 09:51:02;;;;;;;3.00;2.90;;;16.40;62.50;;;;;;5061873;27;44816;-71
2023/01/22 09:53:30;;;;;;;3.00;2.90;;;16.40;62.60;;;;;;5089448;27;45227;-72
2023/01/22 09:55:58;;;;;;;3.10;3.00;;;16.40;62.60;;;;;;5070764;27;45645;-70
2023/01/22 09:58:26;;;;;;;2.80;2.70;;;16.40;62.60;;;;;;5093284;27;43895;-71
2023/01/22 10:00:56;;;;;;;2.97;2.87;;;16.30;62.70;;;;;;5090165;27;43601;-70
2023/01/22 10:03:30;;;;;;;3.30;3.20;;;16.30;62.80;;;;;;5091929;27;44233;-70
2023/01/22 10:05:59;;;;;;;3.00;2.90;;;16.30;63.50;;;;;;5094212;27;43402;-72
2023/01/22 10:08:31;;;;;;;3.00;2.90;;;16.30;62.80;;;;;;5085027;27;43453;-70
2023/01/22 10:10:59;;;;;;;3.40;3.30;;;16.30;62.70;;;;;;5095937;27;43430;-73
2023/01/22 10:13:29;;;;;;;2.70;2.60;;;16.30;63.50;;;;;;5084244;27;43738;-71
2023/01/22 10:15:56;;;;;;;2.80;2.80;;;16.30;62.80;;;;;;5086939;27;43531;-71
2023/01/22 10:18:29;;;;;;;3.03;2.93;;;16.30;62.80;;;;;;5087644;27;43502;-71
2023/01/22 10:20:58;;;;;;;3.10;3.00;;;16.30;63.00;;;;;;5087785;27;43411;-71
2023/01/22 10:23:26;;;;;;;2.80;2.70;;;16.30;62.90;;;;;;5093433;27;43873;-71
2023/01/22 10:25:55;;;;;;;3.00;2.90;;;16.50;62.60;;;;;;5097347;27;43699;-71
2023/01/22 10:28:24;;;;;;;3.00;2.80;;;16.50;62.10;;;;;;5092614;27;43430;-70
2023/01/22 10:30:56;;;;;;;2.80;2.70;;;16.50;62.00;;;;;;5082910;27;43935;-70
2023/01/22 10:33:25;;;;;;;2.80;2.70;;;16.50;62.10;;;;;;5089187;27;43933;-70
2023/01/22 10:35:56;;;;;;;3.07;2.97;;;16.50;62.20;;;;;;5091154;27;43475;-70
2023/01/22 10:38:26;;;;;;;2.80;2.70;;;16.50;62.30;;;;;;5087846;27;43426;-70
2023/01/22 10:40:56;;;;;;;2.40;2.40;;;16.50;62.30;;;;;;5081541;27;43506;-72
2023/01/22 10:43:30;;;;;;;2.33;2.33;;;16.50;62.40;;;;;;5090962;27;43756;-71
2023/01/22 10:46:03;;;;;;;2.47;2.47;;;16.40;62.30;;;;;;5088915;27;43428;-71
2023/01/22 10:48:31;;;;;;;2.60;2.60;;;16.40;62.40;;;;;;5069059;27;43486;-70
2023/01/22 10:51:11;;;;;;;2.50;2.50;;;16.40;62.40;;;;;;5089465;27;43474;-72
2023/01/22 10:53:44;;;;;;;2.83;2.73;;;16.30;62.50;;;;;;5081612;27;44990;-73
2023/01/22 10:56:11;;;;;;;2.57;2.47;;;16.40;62.60;;;;;;5089999;27;43410;-71
2023/01/22 10:58:40;;;;;;;2.57;2.47;;;16.40;62.60;;;;;;5094305;27;43458;-71
2023/01/22 11:01:32;;;;;;;2.43;2.33;;;16.40;62.70;;;;;;5095954;27;43634;-70
2023/01/22 11:04:00;;;;;;;2.50;2.40;;;16.30;62.70;;;;;;5094718;27;44157;-72
2023/01/22 11:06:33;;;;;;;2.73;2.63;;;16.40;62.80;;;;;;5084058;27;45128;-71
2023/01/22 11:09:02;;;;;;;2.43;2.33;;;16.30;62.80;;;;;;5077279;27;43415;-71
2023/01/22 11:11:32;;;;;;;2.90;2.80;;;16.30;62.80;;;;;;5097275;27;43437;-72
2023/01/22 11:14:02;;;;;;;2.13;2.13;;;16.30;62.80;;;;;;5082139;27;45311;-70
2023/01/22 11:16:32;;;;;;;2.40;2.40;;;16.40;62.80;;;;;;5097960;27;43398;-70
2023/01/22 11:19:03;;;;;;;2.80;2.70;;;16.30;62.80;;;;;;5098125;27;43545;-71
2023/01/22 11:21:34;;;;;;;2.60;2.50;;;16.30;62.80;;;;;;5090707;27;43464;-71
2023/01/22 11:24:04;;;;;;;2.63;2.53;;;16.30;62.80;;;;;;5097136;27;43674;-71
2023/01/22 11:26:52;;;;;;;2.30;2.30;;;16.30;62.90;;;;;;5077508;27;44400;-72
2023/01/22 11:29:51;;;;;;;2.20;2.20;;;16.30;62.90;;;;;;5093115;27;43479;-70
2023/01/22 11:32:30;;;;;;;2.70;2.57;;;16.50;62.70;;;;;;5102587;27;43502;-71
2023/01/22 11:35:01;;;;;;;2.33;2.27;;;16.50;62.20;;;;;;5079895;27;44178;-72
2023/01/22 11:37:39;;;;;;;2.03;2.03;;;16.50;62.20;;;;;;5099970;27;43490;-72
2023/01/22 11:40:18;;;;;;;2.27;2.17;;;16.60;62.30;;;;;;5085511;27;43499;-69
2023/01/22 11:42:57;;;;;;;2.00;2.00;;;16.50;62.30;;;;;;5087920;27;43472;-71
2023/01/22 11:46:05;;;;;;;2.40;2.30;;;16.50;62.40;;;;;;5095097;27;43933;-71
2023/01/22 11:48:39;;;;;;;2.17;2.07;;;16.50;62.50;;;;;;5095292;27;43370;-71
2023/01/22 11:51:15;;;;;;;2.40;2.30;;;16.50;62.50;;;;;;5082499;27;43429;-72
2023/01/22 11:53:52;;;;;;;2.30;2.20;;;16.50;62.70;;;;;;5095129;27;43993;-70
2023/01/22 11:56:40;;;;;;;2.00;2.00;;;16.40;62.60;;;;;;5087110;27;43892;-70
2023/01/22 11:59:11;;;;;;;2.30;2.30;;;16.40;62.70;;;;;;5083613;27;44884;-72
2023/01/22 12:01:48;;;;;;;2.27;2.20;;;16.40;62.70;;;;;;5089583;27;43438;-71
2023/01/22 12:04:25;;;;;;;1.90;1.90;;;16.40;62.80;;;;;;5097087;27;43927;-71
2023/01/22 12:07:07;;;;;;;2.43;2.33;;;16.40;62.80;;;;;;5092794;27;43599;-71
2023/01/22 12:09:39;;;;;;;1.90;1.90;;;16.30;62.80;;;;;;5086830;27;43477;-71
2023/01/22 12:12:14;;;;;;;1.97;1.93;;;16.30;62.80;;;;;;5094253;27;43392;-72
2023/01/22 12:15:09;;;;;;;1.97;1.97;;;16.30;62.90;;;;;;5087589;27;43487;-71
2023/01/22 12:17:43;;;;;;;2.37;2.30;;;16.30;63.00;;;;;;5087572;27;43836;-72
2023/01/22 12:20:24;;;;;;;2.27;2.27;;;16.30;63.00;;;;;;5088093;27;43446;-70
2023/01/22 12:22:55;;;;;;;2.27;2.27;;;16.40;60.40;;;;;;5088716;27;43454;-71
2023/01/22 12:25:30;;;;;;;2.03;1.93;;;16.40;61.20;;;;;;5099178;27;43451;-71
2023/01/22 12:28:00;;;;;;;2.43;2.30;;;16.50;61.60;;;;;;5097551;27;43928;-70
2023/01/22 12:30:30;;;;;;;2.50;2.10;;;16.40;61.70;;;;;;5091586;27;43417;-71
2023/01/22 12:32:59;;;;;;;2.77;2.50;;;16.40;61.90;;;;;;5099655;27;43531;-72
2023/01/22 12:35:29;;;;;;;2.20;2.10;;;16.40;62.00;;;;;;5078219;27;43650;-70
2023/01/22 12:38:01;;;;;;;2.10;2.00;;;16.40;62.20;;;;;;5099042;27;44296;-71
2023/01/22 12:40:58;;;;;;;1.90;1.90;;;16.40;62.30;;;;;;5103065;27;43542;-71
2023/01/22 12:43:30;;;;;;;1.97;1.93;;;16.40;62.40;;;;;;5097269;27;43516;-70
2023/01/22 12:46:01;;;;;;;1.90;1.80;;;16.30;62.50;;;;;;5082570;27;44239;-71
2023/01/22 12:48:31;;;;;;;2.40;2.00;;;16.30;62.50;;;;;;5098752;27;43856;-70
2023/01/22 12:50:59;;;;;;;2.30;2.10;;;16.30;62.60;;;;;;5077125;27;45169;-70
2023/01/22 12:53:28;;;;;;;1.90;1.80;;;16.30;62.60;;;;;;5104273;27;43950;-70
2023/01/22 12:56:05;;;;;;;1.70;1.70;;;16.30;62.60;;;;;;5085941;27;43654;-71
2023/01/22 12:58:34;;;;;;;1.80;1.80;;;16.30;62.60;;;;;;5103984;27;43908;-71
2023/01/22 13:01:05;;;;;;;1.90;1.90;;;16.30;62.50;;;;;;5074097;27;44735;-71
2023/01/22 13:03:35;;;;;;;2.00;2.00;;;16.30;62.60;;;;;;5089081;27;44179;-71
2023/01/22 13:06:04;;;;;;;2.97;1.90;;;16.30;62.70;;;;;;5074191;28;43572;-70
2023/01/22 13:08:37;;;;;;;1.90;1.90;;;16.30;62.90;;;;;;5085303;27;44791;-71
2023/01/22 13:11:08;;;;;;;2.20;2.10;;;16.40;62.90;;;;;;5080991;27;44491;-72